createdAt,value
2023-04-09T00:01:56.930Z,9.05
2023-04-09T00:04:24.142Z,9.05
2023-04-09T00:06:51.148Z,9.55
2023-04-09T00:09:18.099Z,9.50
2023-04-09T00:11:45.020Z,9.35
2023-04-09T00:14:11.923Z,8.88
2023-04-09T00:16:38.921Z,12.38
2023-04-09T00:19:06.195Z,9.65
2023-04-09T00:21:33.044Z,9.25
2023-04-09T00:23:59.958Z,8.80
2023-04-09T00:26:27.639Z,9.13
2023-04-09T00:28:56.630Z,9.23
2023-04-09T00:31:23.883Z,8.27
2023-04-09T00:33:50.953Z,8.60
2023-04-09T00:36:17.849Z,7.95
2023-04-09T00:38:45.636Z,8.98
2023-04-09T00:41:12.564Z,9.10
2023-04-09T00:43:39.483Z,8.35
2023-04-09T00:46:06.549Z,8.98
2023-04-09T00:48:33.783Z,8.18
2023-04-09T00:51:01.052Z,8.77
2023-04-09T00:53:28.300Z,9.50
2023-04-09T00:55:56.180Z,8.95
2023-04-09T00:58:23.131Z,8.75
2023-04-09T01:00:50.114Z,7.68
2023-04-09T01:03:17.362Z,9.73
2023-04-09T01:05:58.869Z,10.00
2023-04-09T01:08:40.729Z,8.05
2023-04-09T01:11:29.521Z,7.68
2023-04-09T01:14:09.009Z,8.00
2023-04-09T01:16:38.252Z,8.13
2023-04-09T01:19:41.709Z,8.10
2023-04-09T01:22:22.295Z,8.10
2023-04-09T01:25:04.483Z,8.50
2023-04-09T01:30:27.589Z,8.23
2023-04-09T01:32:55.906Z,8.07
2023-04-09T01:35:23.474Z,7.85
2023-04-09T01:37:51.739Z,8.27
2023-04-09T01:40:18.928Z,7.75
2023-04-09T01:42:47.416Z,8.55
2023-04-09T01:45:16.158Z,6.97
2023-04-09T01:47:43.451Z,6.95
2023-04-09T01:50:11.064Z,7.20
2023-04-09T01:52:38.446Z,7.82
2023-04-09T01:55:05.955Z,8.57
2023-04-09T01:57:32.881Z,8.18
2023-04-09T01:59:59.979Z,7.18
2023-04-09T02:02:38.757Z,7.45
2023-04-09T02:05:10.946Z,7.70
2023-04-09T02:07:43.147Z,7.65
2023-04-09T02:10:12.295Z,7.18
2023-04-09T02:12:43.068Z,7.53
2023-04-09T02:15:11.035Z,7.20
2023-04-09T02:17:38.118Z,7.18
2023-04-09T02:20:05.526Z,7.95
2023-04-09T02:22:32.448Z,7.10
2023-04-09T02:24:59.624Z,6.90
2023-04-09T02:27:26.622Z,7.00
2023-04-09T02:29:53.596Z,7.63
2023-04-09T02:32:20.600Z,7.90
2023-04-09T02:34:47.538Z,7.32
2023-04-09T02:37:14.434Z,7.38
2023-04-09T02:39:41.421Z,7.30
2023-04-09T02:42:08.498Z,7.22
2023-04-09T02:44:35.621Z,7.32
2023-04-09T02:47:02.587Z,7.20
2023-04-09T02:49:29.702Z,7.57
2023-04-09T02:51:56.622Z,7.25
2023-04-09T02:54:23.555Z,8.02
2023-04-09T02:56:50.608Z,7.40
2023-04-09T02:59:17.646Z,8.15
2023-04-09T03:01:44.815Z,7.80
2023-04-09T03:04:11.890Z,8.38
2023-04-09T03:06:38.932Z,8.05
2023-04-09T03:09:05.911Z,7.65
2023-04-09T03:11:32.895Z,7.60
2023-04-09T03:13:59.769Z,8.32
2023-04-09T03:16:26.933Z,8.75
2023-04-09T03:18:54.161Z,8.50
2023-04-09T03:21:21.338Z,9.05
2023-04-09T03:23:50.223Z,7.78
2023-04-09T03:26:17.133Z,7.78
2023-04-09T03:28:48.046Z,8.50
2023-04-09T03:31:15.060Z,8.32
2023-04-09T03:33:43.342Z,9.40
2023-04-09T03:36:11.539Z,7.25
2023-04-09T03:38:48.893Z,7.95
2023-04-09T03:41:26.919Z,8.77
2023-04-09T03:43:54.890Z,8.18
2023-04-09T03:46:26.210Z,8.10
2023-04-09T03:48:53.450Z,8.00
2023-04-09T03:51:21.110Z,7.28
2023-04-09T03:53:54.199Z,7.82
2023-04-09T03:56:21.443Z,8.27
2023-04-09T03:58:49.906Z,7.80
2023-04-09T04:01:18.347Z,8.13
2023-04-09T04:03:54.357Z,8.07
2023-04-09T04:06:23.848Z,8.00
2023-04-09T04:09:11.097Z,7.38
2023-04-09T04:11:46.489Z,7.05
2023-04-09T04:14:13.686Z,7.18
2023-04-09T04:16:43.185Z,6.93
2023-04-09T04:19:11.919Z,8.13
2023-04-09T04:21:44.769Z,6.85
2023-04-09T04:24:11.715Z,7.70
2023-04-09T04:26:40.455Z,7.47
2023-04-09T04:29:08.182Z,7.25
2023-04-09T04:31:55.606Z,7.53
2023-04-09T04:34:25.376Z,8.65
2023-04-09T04:37:00.648Z,7.50
2023-04-09T04:39:31.676Z,8.10
2023-04-09T04:42:06.256Z,8.20
2023-04-09T04:44:33.415Z,8.50
2023-04-09T04:47:11.196Z,8.77
2023-04-09T04:49:38.163Z,7.97
2023-04-09T04:52:07.962Z,8.10
2023-04-09T04:54:36.730Z,9.57
2023-04-09T04:57:03.760Z,8.60
2023-04-09T04:59:40.670Z,8.02
2023-04-09T05:02:10.396Z,7.72
2023-04-09T05:04:56.233Z,7.95
2023-04-09T05:07:31.277Z,7.55
2023-04-09T05:09:58.732Z,7.30
2023-04-09T05:12:26.571Z,7.97
2023-04-09T05:14:53.889Z,8.65
2023-04-09T05:17:20.959Z,8.15
2023-04-09T05:19:52.953Z,8.48
2023-04-09T05:22:25.287Z,7.80
2023-04-09T05:24:52.764Z,8.38
2023-04-09T05:27:22.382Z,9.45
2023-04-09T05:29:51.359Z,8.90
2023-04-09T05:32:18.401Z,9.27
2023-04-09T05:34:45.374Z,9.15
2023-04-09T05:37:12.374Z,8.02
2023-04-09T05:39:39.914Z,8.75
2023-04-09T05:42:06.999Z,8.70
2023-04-09T05:44:40.690Z,8.55
2023-04-09T05:47:12.692Z,8.63
2023-04-09T05:49:50.588Z,7.93
2023-04-09T05:52:18.197Z,8.50
2023-04-09T05:54:45.233Z,9.48
2023-04-09T05:57:15.745Z,9.23
2023-04-09T05:59:47.606Z,8.98
2023-04-09T06:02:15.508Z,8.38
2023-04-09T06:04:42.575Z,9.93
2023-04-09T06:07:10.293Z,9.35
2023-04-09T06:09:37.486Z,7.57
2023-04-09T06:12:04.858Z,7.93
2023-04-09T06:14:33.500Z,9.55
2023-04-09T06:17:02.786Z,8.27
2023-04-09T06:19:30.251Z,8.18
2023-04-09T06:21:57.409Z,8.10
2023-04-09T06:24:24.532Z,8.20
2023-04-09T06:26:51.688Z,9.18
2023-04-09T06:29:18.996Z,8.40
2023-04-09T06:31:46.746Z,8.85
2023-04-09T06:34:13.810Z,9.25
2023-04-09T06:36:40.865Z,8.70
2023-04-09T06:39:08.225Z,9.20
2023-04-09T06:41:35.714Z,8.05
2023-04-09T06:44:11.206Z,8.63
2023-04-09T06:46:38.599Z,8.48
2023-04-09T06:49:06.339Z,11.27
2023-04-09T06:51:33.435Z,7.95
2023-04-09T06:54:00.772Z,8.65
2023-04-09T06:56:27.984Z,8.65
2023-04-09T06:58:55.114Z,8.93
2023-04-09T07:01:22.392Z,7.88
2023-04-09T07:03:49.667Z,8.13
2023-04-09T07:06:17.072Z,8.23
2023-04-09T07:08:44.125Z,7.97
2023-04-09T07:11:11.409Z,8.68
2023-04-09T07:13:38.571Z,8.18
2023-04-09T07:16:06.198Z,7.97
2023-04-09T07:18:33.208Z,6.90
2023-04-09T07:21:00.415Z,7.90
2023-04-09T07:23:27.563Z,9.23
2023-04-09T07:25:54.609Z,8.85
2023-04-09T07:28:21.672Z,7.97
2023-04-09T07:30:48.770Z,7.43
2023-04-09T07:33:16.042Z,8.02
2023-04-09T07:35:43.327Z,7.80
2023-04-09T07:38:10.541Z,8.23
2023-04-09T07:40:37.693Z,8.18
2023-04-09T07:43:14.861Z,7.80
2023-04-09T07:45:42.591Z,8.60
2023-04-09T07:48:10.961Z,7.40
2023-04-09T07:50:38.743Z,7.07
2023-04-09T07:53:05.930Z,8.52
2023-04-09T07:55:33.144Z,7.30
2023-04-09T07:58:00.565Z,7.10
2023-04-09T08:00:27.612Z,6.68
2023-04-09T08:02:55.083Z,6.40
2023-04-09T08:05:22.508Z,6.30
2023-04-09T08:07:52.276Z,6.90
2023-04-09T08:10:20.721Z,6.55
2023-04-09T08:12:50.000Z,5.88
2023-04-09T08:15:17.324Z,6.32
2023-04-09T08:17:44.692Z,5.88
2023-04-09T08:20:13.200Z,6.07
2023-04-09T08:22:41.694Z,6.28
2023-04-09T08:25:11.890Z,6.43
2023-04-09T08:27:40.160Z,6.78
2023-04-09T08:30:08.111Z,6.50
2023-04-09T08:32:35.979Z,6.20
2023-04-09T08:35:03.471Z,7.07
2023-04-09T08:37:30.857Z,5.85
2023-04-09T08:39:57.900Z,6.47
2023-04-09T08:42:26.419Z,5.03
2023-04-09T08:44:53.845Z,6.47
2023-04-09T08:47:22.144Z,6.15
2023-04-09T08:49:50.594Z,6.05
2023-04-09T08:52:22.228Z,5.97
2023-04-09T08:54:51.898Z,6.32
2023-04-09T08:57:19.003Z,6.38
2023-04-09T08:59:46.933Z,6.65
2023-04-09T09:02:14.782Z,6.70
2023-04-09T09:04:49.676Z,7.53
2023-04-09T09:07:18.051Z,6.75
2023-04-09T09:09:57.256Z,6.40
2023-04-09T09:12:38.957Z,6.10
2023-04-09T09:15:29.654Z,6.78
2023-04-09T09:18:08.207Z,6.53
2023-04-09T09:20:38.427Z,6.63
2023-04-09T09:23:06.294Z,5.63
2023-04-09T09:25:39.338Z,6.07
2023-04-09T09:28:15.216Z,6.30
2023-04-09T09:30:43.940Z,6.47
2023-04-09T09:33:12.445Z,6.50
2023-04-09T09:35:54.607Z,6.70
2023-04-09T09:38:22.159Z,6.82
2023-04-09T09:40:51.671Z,6.38
2023-04-09T09:43:18.899Z,6.95
2023-04-09T09:45:48.041Z,6.90
2023-04-09T09:48:16.282Z,7.25
2023-04-09T09:50:49.474Z,6.70
2023-04-09T09:53:42.008Z,6.65
2023-04-09T09:56:22.680Z,6.70
2023-04-09T09:59:06.000Z,6.63
2023-04-09T10:01:44.319Z,6.60
2023-04-09T10:04:16.308Z,6.78
2023-04-09T10:06:50.582Z,7.13
2023-04-09T10:09:23.749Z,6.57
2023-04-09T10:11:50.866Z,6.85
2023-04-09T10:14:19.232Z,7.40
2023-04-09T10:16:47.133Z,7.60
2023-04-09T10:19:15.492Z,10.05
2023-04-09T10:21:55.033Z,7.30
2023-04-09T10:24:23.089Z,8.00
2023-04-09T10:26:54.864Z,8.15
2023-04-09T10:29:28.830Z,7.18
2023-04-09T10:32:09.420Z,6.82
2023-04-09T10:34:43.103Z,8.18
2023-04-09T10:37:15.457Z,6.78
2023-04-09T10:39:48.672Z,7.20
2023-04-09T10:42:24.928Z,7.40
2023-04-09T10:45:10.069Z,7.38
2023-04-09T10:47:39.371Z,7.43
2023-04-09T10:50:45.136Z,7.70
2023-04-09T10:53:28.036Z,6.93
2023-04-09T10:55:56.789Z,7.10
2023-04-09T10:58:24.048Z,7.68
2023-04-09T11:00:54.084Z,7.97
2023-04-09T11:05:59.510Z,6.70
2023-04-09T11:08:34.649Z,7.22
2023-04-09T11:11:06.204Z,7.25
2023-04-09T11:13:34.723Z,9.18
2023-04-09T11:16:24.679Z,7.82
2023-04-09T11:18:56.437Z,6.38
2023-04-09T11:21:29.101Z,7.03
2023-04-09T11:23:57.852Z,6.80
2023-04-09T11:26:36.084Z,6.60
2023-04-09T11:29:10.501Z,7.20
2023-04-09T11:31:37.799Z,6.78
2023-04-09T11:34:05.096Z,7.72
2023-04-09T11:36:35.104Z,7.90
2023-04-09T11:41:37.453Z,6.50
2023-04-09T11:44:05.414Z,6.75
2023-04-09T11:46:39.580Z,8.35
2023-04-09T11:49:07.272Z,7.40
2023-04-09T11:51:35.855Z,6.78
2023-04-09T11:54:25.991Z,7.15
2023-04-09T11:56:56.258Z,6.80
2023-04-09T11:59:23.266Z,8.45
2023-04-09T12:01:51.593Z,7.10
2023-04-09T12:04:22.204Z,7.32
2023-04-09T12:06:49.689Z,7.60
2023-04-09T12:09:17.018Z,7.97
2023-04-09T12:11:44.922Z,7.63
2023-04-09T12:14:16.671Z,8.13
2023-04-09T12:16:45.103Z,7.70
2023-04-09T12:19:13.397Z,7.95
2023-04-09T12:21:51.346Z,8.35
2023-04-09T12:24:19.523Z,8.02
2023-04-09T12:26:47.105Z,7.85
2023-04-09T12:29:16.649Z,7.75
2023-04-09T12:31:44.182Z,10.27
2023-04-09T12:34:11.628Z,7.70
2023-04-09T12:36:39.892Z,8.27
2023-04-09T12:39:07.392Z,6.70
2023-04-09T12:41:34.524Z,7.70
2023-04-09T12:44:01.737Z,7.57
2023-04-09T12:46:28.894Z,7.47
2023-04-09T12:48:56.085Z,6.85
2023-04-09T12:51:23.299Z,8.00
2023-04-09T12:53:50.724Z,7.00
2023-04-09T12:56:17.702Z,7.60
2023-04-09T12:58:44.657Z,7.47
2023-04-09T13:01:11.800Z,6.78
2023-04-09T13:03:50.296Z,8.18
2023-04-09T13:06:18.525Z,8.02
2023-04-09T13:08:45.528Z,6.35
2023-04-09T13:11:12.555Z,6.88
2023-04-09T13:13:42.123Z,6.70
2023-04-09T13:18:36.525Z,7.05
2023-04-09T13:21:03.666Z,7.00
2023-04-09T13:23:30.738Z,7.07
2023-04-09T13:25:58.912Z,7.30
2023-04-09T13:28:26.437Z,6.97
2023-04-09T13:30:53.620Z,6.53
2023-04-09T13:33:20.800Z,7.40
2023-04-09T13:35:47.896Z,6.97
2023-04-09T13:38:14.902Z,7.72
2023-04-09T13:40:41.959Z,6.57
2023-04-09T13:43:08.898Z,7.50
2023-04-09T13:45:35.957Z,6.93
2023-04-09T13:48:02.921Z,6.90
2023-04-09T13:50:30.024Z,6.97
2023-04-09T13:52:56.939Z,6.93
2023-04-09T13:55:23.953Z,6.88
2023-04-09T13:57:50.948Z,5.82
2023-04-09T14:00:20.127Z,7.05
2023-04-09T14:02:48.302Z,6.43
2023-04-09T14:05:15.403Z,6.80
2023-04-09T14:07:42.311Z,7.00
2023-04-09T14:10:09.728Z,7.03
2023-04-09T14:12:36.788Z,7.50
2023-04-09T14:15:04.258Z,6.55
2023-04-09T14:17:31.312Z,6.65
2023-04-09T14:19:59.291Z,6.80
2023-04-09T14:22:27.726Z,6.63
2023-04-09T14:24:54.741Z,7.03
2023-04-09T14:27:21.714Z,7.65
2023-04-09T14:29:48.649Z,6.90
2023-04-09T14:32:15.659Z,6.45
2023-04-09T14:34:42.964Z,6.57
2023-04-09T14:37:09.860Z,7.00
2023-04-09T14:39:36.887Z,6.32
2023-04-09T14:42:04.168Z,7.20
2023-04-09T14:44:31.927Z,6.40
2023-04-09T14:47:00.161Z,5.93
2023-04-09T14:49:27.433Z,5.82
2023-04-09T14:51:54.795Z,5.88
2023-04-09T14:54:21.737Z,6.72
2023-04-09T14:56:48.807Z,6.45
2023-04-09T14:59:15.819Z,5.82
2023-04-09T15:01:42.897Z,5.47
2023-04-09T15:04:10.223Z,6.60
2023-04-09T15:06:37.480Z,6.00
2023-04-09T15:09:04.504Z,6.38
2023-04-09T15:11:31.531Z,6.05
2023-04-09T15:13:58.579Z,5.95
2023-04-09T15:16:27.301Z,5.68
2023-04-09T15:18:57.877Z,6.63
2023-04-09T15:21:24.884Z,6.78
2023-04-09T15:23:52.271Z,6.60
2023-04-09T15:26:19.861Z,5.93
2023-04-09T15:28:46.857Z,5.95
2023-04-09T15:31:14.015Z,6.43
2023-04-09T15:33:44.059Z,6.63
2023-04-09T15:38:39.118Z,6.07
2023-04-09T15:41:06.313Z,6.80
2023-04-09T15:43:33.255Z,8.88
2023-04-09T15:46:00.291Z,6.53
2023-04-09T15:48:27.250Z,6.50
2023-04-09T15:50:54.266Z,6.72
2023-04-09T15:53:24.050Z,6.28
2023-04-09T15:55:51.027Z,7.38
2023-04-09T15:58:17.894Z,6.40
2023-04-09T16:00:44.856Z,6.97
2023-04-09T16:03:11.905Z,6.97
2023-04-09T16:05:39.353Z,7.20
2023-04-09T16:08:06.499Z,6.93
2023-04-09T16:10:33.789Z,8.25
2023-04-09T16:13:00.844Z,6.80
2023-04-09T16:15:29.055Z,7.95
2023-04-09T16:17:57.289Z,6.93
2023-04-09T16:20:24.353Z,6.57
2023-04-09T16:22:51.256Z,7.00
2023-04-09T16:25:18.188Z,6.82
2023-04-09T16:27:45.180Z,7.03
2023-04-09T16:30:12.558Z,6.72
2023-04-09T16:32:39.596Z,7.18
2023-04-09T16:35:06.904Z,5.93
2023-04-09T16:37:35.313Z,7.22
2023-04-09T16:40:02.321Z,6.75
2023-04-09T16:42:30.561Z,6.63
2023-04-09T16:44:57.539Z,6.90
2023-04-09T16:47:24.582Z,6.82
2023-04-09T16:49:51.739Z,6.63
2023-04-09T16:52:18.910Z,6.60
2023-04-09T16:54:46.088Z,6.38
2023-04-09T16:57:13.006Z,6.28
2023-04-09T16:59:42.678Z,6.68
2023-04-09T17:02:09.819Z,6.43
2023-04-09T17:04:38.324Z,7.13
2023-04-09T17:07:05.312Z,5.47
2023-04-09T17:09:32.296Z,5.88
2023-04-09T17:11:59.264Z,6.40
2023-04-09T17:14:26.640Z,6.32
2023-04-09T17:16:54.125Z,6.25
2023-04-09T17:19:21.200Z,7.05
2023-04-09T17:21:48.148Z,7.03
2023-04-09T17:24:15.178Z,6.95
2023-04-09T17:26:42.416Z,6.53
2023-04-09T17:29:09.362Z,7.40
2023-04-09T17:31:36.553Z,6.20
2023-04-09T17:34:05.262Z,6.53
2023-04-09T17:36:32.215Z,6.07
2023-04-09T17:38:59.124Z,6.43
2023-04-09T17:41:26.519Z,6.82
2023-04-09T17:43:54.267Z,6.43
2023-04-09T17:46:21.299Z,6.75
2023-04-09T17:48:48.315Z,6.78
2023-04-09T17:51:18.632Z,6.97
2023-04-09T17:53:46.281Z,6.28
2023-04-09T17:56:17.214Z,7.43
2023-04-09T17:58:45.010Z,7.07
2023-04-09T18:01:13.218Z,6.75
2023-04-09T18:03:43.949Z,7.78
2023-04-09T18:06:11.774Z,7.10
2023-04-09T18:08:38.838Z,7.03
2023-04-09T18:11:11.921Z,8.10
2023-04-09T18:13:40.605Z,6.80
2023-04-09T18:16:12.446Z,6.65
2023-04-09T18:18:39.908Z,7.05
2023-04-09T18:21:07.143Z,6.93
2023-04-09T18:23:34.132Z,6.95
2023-04-09T18:26:01.325Z,7.07
2023-04-09T18:28:28.464Z,7.15
2023-04-09T18:30:55.535Z,7.22
2023-04-09T18:33:23.225Z,7.65
2023-04-09T18:35:50.318Z,7.38
2023-04-09T18:38:18.043Z,7.47
2023-04-09T18:40:46.036Z,6.85
2023-04-09T18:43:12.997Z,7.07
2023-04-09T18:45:39.942Z,7.70
2023-04-09T18:48:08.467Z,8.52
2023-04-09T18:50:35.750Z,7.82
2023-04-09T18:53:03.791Z,7.18
2023-04-09T18:55:30.966Z,8.48
2023-04-09T18:57:58.614Z,7.32
2023-04-09T19:00:25.746Z,9.57
2023-04-09T19:02:53.086Z,8.10
2023-04-09T19:05:22.476Z,7.53
2023-04-09T19:07:49.392Z,8.00
2023-04-09T19:10:16.553Z,9.25
2023-04-09T19:12:49.977Z,8.38
2023-04-09T19:15:17.117Z,7.70
2023-04-09T19:17:44.026Z,7.78
2023-04-09T19:20:11.574Z,7.95
2023-04-09T19:22:39.047Z,7.70
2023-04-09T19:25:07.841Z,7.53
2023-04-09T19:27:34.772Z,7.15
2023-04-09T19:30:01.840Z,7.40
2023-04-09T19:32:28.980Z,9.40
2023-04-09T19:34:56.056Z,7.82
2023-04-09T19:37:27.652Z,7.30
2023-04-09T19:39:58.896Z,7.32
2023-04-09T19:42:28.866Z,7.20
2023-04-09T19:44:55.816Z,7.18
2023-04-09T19:47:22.783Z,7.90
2023-04-09T19:49:49.786Z,7.00
2023-04-09T19:52:16.770Z,7.03
2023-04-09T19:54:43.831Z,6.97
2023-04-09T19:57:11.015Z,7.10
2023-04-09T19:59:40.101Z,7.00
2023-04-09T20:02:07.634Z,7.32
2023-04-09T20:04:34.813Z,7.43
2023-04-09T20:07:01.761Z,6.95
2023-04-09T20:09:29.323Z,5.80
2023-04-09T20:11:58.583Z,6.07
2023-04-09T20:14:25.685Z,6.57
2023-04-09T20:16:52.825Z,6.40
2023-04-09T20:19:19.892Z,5.93
2023-04-09T20:21:47.180Z,5.60
2023-04-09T20:24:14.102Z,6.63
2023-04-09T20:26:41.233Z,5.95
2023-04-09T20:29:10.685Z,6.38
2023-04-09T20:31:39.007Z,5.85
2023-04-09T20:34:06.087Z,6.60
2023-04-09T20:36:33.186Z,6.25
2023-04-09T20:39:00.216Z,6.40
2023-04-09T20:41:27.330Z,5.88
2023-04-09T20:43:54.257Z,6.20
2023-04-09T20:46:21.537Z,6.15
2023-04-09T20:48:48.466Z,7.07
2023-04-09T20:51:15.963Z,6.32
2023-04-09T20:53:43.076Z,7.18
2023-04-09T20:56:10.090Z,6.20
2023-04-09T20:58:37.082Z,6.22
2023-04-09T21:01:09.620Z,5.78
2023-04-09T21:03:38.824Z,6.40
2023-04-09T21:06:07.372Z,6.00
2023-04-09T21:08:34.821Z,6.78
2023-04-09T21:11:02.396Z,6.50
2023-04-09T21:13:30.049Z,6.00
2023-04-09T21:15:57.954Z,6.10
2023-04-09T21:18:24.923Z,5.93
2023-04-09T21:20:51.905Z,6.15
2023-04-09T21:23:18.899Z,7.70
2023-04-09T21:25:45.896Z,6.60
2023-04-09T21:28:12.785Z,6.75
2023-04-09T21:30:39.827Z,6.20
2023-04-09T21:33:08.402Z,6.30
2023-04-09T21:35:36.682Z,7.65
2023-04-09T21:38:03.915Z,6.80
2023-04-09T21:40:31.490Z,6.82
2023-04-09T21:42:58.783Z,6.40
2023-04-09T21:45:26.159Z,7.18
2023-04-09T21:47:53.164Z,7.60
2023-04-09T21:50:20.285Z,7.55
2023-04-09T21:52:47.567Z,7.53
2023-04-09T21:55:14.661Z,8.25
2023-04-09T21:57:41.659Z,7.82
2023-04-09T22:00:11.201Z,8.05
2023-04-09T22:02:39.527Z,7.40
2023-04-09T22:05:06.798Z,6.93
2023-04-09T22:07:33.945Z,7.68
2023-04-09T22:10:00.956Z,7.30
2023-04-09T22:12:27.992Z,8.45
2023-04-09T22:14:55.701Z,8.52
2023-04-09T22:17:22.730Z,7.78
2023-04-09T22:19:51.244Z,8.02
2023-04-09T22:22:18.298Z,7.18
2023-04-09T22:24:45.236Z,8.18
2023-04-09T22:27:13.232Z,7.30
2023-04-09T22:29:41.677Z,6.80
2023-04-09T22:32:09.562Z,6.85
2023-04-09T22:34:36.550Z,8.00
2023-04-09T22:37:03.627Z,7.22
2023-04-09T22:39:31.283Z,7.82
2023-04-09T22:41:58.735Z,7.70
2023-04-09T22:44:25.918Z,7.43
2023-04-09T22:46:53.006Z,6.78
2023-04-09T22:49:20.107Z,7.05
2023-04-09T22:51:47.371Z,7.45
2023-04-09T22:54:14.294Z,8.20
2023-04-09T22:56:41.258Z,6.95
2023-04-09T22:59:08.238Z,7.78
2023-04-09T23:01:35.294Z,6.82
2023-04-09T23:04:02.253Z,7.93
2023-04-09T23:06:31.141Z,7.32
2023-04-09T23:09:00.043Z,7.95
2023-04-09T23:11:27.507Z,8.10
2023-04-09T23:13:59.896Z,6.95
2023-04-09T23:16:26.933Z,7.20
2023-04-09T23:18:54.052Z,7.53
2023-04-09T23:21:21.337Z,8.13
2023-04-09T23:23:48.365Z,7.28
2023-04-09T23:26:15.707Z,7.70
2023-04-09T23:28:42.621Z,7.97
2023-04-09T23:31:09.601Z,7.63
2023-04-09T23:33:36.503Z,6.82
2023-04-09T23:36:04.851Z,6.50
2023-04-09T23:38:31.853Z,7.05
2023-04-09T23:40:58.827Z,7.35
2023-04-09T23:43:25.855Z,7.65
2023-04-09T23:45:52.742Z,7.45
2023-04-09T23:48:21.390Z,7.90
2023-04-09T23:50:48.359Z,7.35
2023-04-09T23:53:16.348Z,7.20
2023-04-09T23:55:43.713Z,7.95
2023-04-09T23:58:10.613Z,7.25
